Tres Forquilhas, Brazil
Current Conditions -  °F | °C
As of 8:00 AM on Saturday 25 Oct 2014 (Local Time) from SBCO Reporting Station
Broken Clouds Broken Clouds  
Wind Chill: 68°   Ceiling: 1100
Heat Index: 68°   Visibility: 4mi
Dew Point: 64°   Wind: 2mph
Humidity: 88%   Direction: 90°E
Pressure: 29.91"   Gusts: NA
Location:  29.59°S, 50.07°W
Report Text: SBCO 251000Z 09002KT 7000 BKN011 20/18 Q1013
Loading
Personal Weather Stations






























Interactive Weather Map
Tropical Storm Tracking
New forecast layout! Learn more

10-Day Weather Forecast

Advertisements
Track Severe Weather on mobile